Time;durP1;ratioP1;P1;durP2;ratioP2;P2;SDS_P1;SDS_P2;PMS_P1;PMS_P2;Temp;Humidity;BMP_temperature;BMP_pressure;BME280_temperature;BME280_humidity;BME280_pressure;Samples;Min_cycle;Max_cycle;Signal;HPM_P1;HPM_P2
2022/07/19 00:01:45;;;;;;;11.20;5.90;;;;;;;;;;3353151;42;20092;-60
2022/07/19 00:04:11;;;;;;;11.00;6.47;;;;;;;;;;3357013;42;20103;-60
2022/07/19 00:06:37;;;;;;;12.07;6.38;;;;;;;;;;3353750;42;20511;-60
2022/07/19 00:09:03;;;;;;;11.73;6.55;;;;;;;;;;3349374;42;20092;-59
2022/07/19 00:11:29;;;;;;;12.60;6.85;;;;;;;;;;3348831;42;20085;-60
2022/07/19 00:13:55;;;;;;;12.17;6.80;;;;;;;;;;3351202;42;20100;-61
2022/07/19 00:16:21;;;;;;;11.57;6.53;;;;;;;;;;3350859;42;20112;-60
2022/07/19 00:18:47;;;;;;;10.70;5.95;;;;;;;;;;3356506;42;20108;-59
2022/07/19 00:21:13;;;;;;;11.93;6.30;;;;;;;;;;3348511;42;20114;-60
2022/07/19 00:23:39;;;;;;;11.15;6.00;;;;;;;;;;3350828;42;20084;-60
2022/07/19 00:26:05;;;;;;;12.13;6.47;;;;;;;;;;3355885;42;20088;-60
2022/07/19 00:28:31;;;;;;;12.65;6.60;;;;;;;;;;3352332;42;20088;-60
2022/07/19 00:30:57;;;;;;;12.18;6.57;;;;;;;;;;3353269;42;20286;-59
2022/07/19 00:33:23;;;;;;;11.20;6.07;;;;;;;;;;3345259;42;20651;-62
2022/07/19 00:35:49;;;;;;;12.80;6.63;;;;;;;;;;3350522;42;20093;-58
2022/07/19 00:38:16;;;;;;;10.85;6.03;;;;;;;;;;3355768;42;20076;-60
2022/07/19 00:40:42;;;;;;;12.88;7.18;;;;;;;;;;3354045;42;20108;-59
2022/07/19 00:43:09;;;;;;;12.77;6.60;;;;;;;;;;3354660;42;20100;-58
2022/07/19 00:45:35;;;;;;;13.55;6.90;;;;;;;;;;3354861;42;20174;-60
2022/07/19 00:48:01;;;;;;;12.35;6.75;;;;;;;;;;3352244;42;20088;-60
2022/07/19 00:50:27;;;;;;;12.48;7.07;;;;;;;;;;3350230;42;20100;-59
2022/07/19 00:52:55;;;;;;;12.93;7.18;;;;;;;;;;3353286;42;20566;-60
2022/07/19 00:55:22;;;;;;;13.50;6.47;;;;;;;;;;3352629;42;20096;-60
2022/07/19 00:57:48;;;;;;;12.65;6.20;;;;;;;;;;3344454;42;20156;-59
2022/07/19 01:00:15;;;;;;;11.35;6.18;;;;;;;;;;3346694;42;20155;-59
2022/07/19 01:02:41;;;;;;;10.60;5.90;;;;;;;;;;3353747;42;20123;-60
2022/07/19 01:05:07;;;;;;;10.85;5.78;;;;;;;;;;3343913;42;20089;-60
2022/07/19 01:07:43;;;;;;;9.87;5.50;;;;;;;;;;3358362;42;20122;-60
2022/07/19 01:10:09;;;;;;;9.75;4.90;;;;;;;;;;3358610;42;20111;-60
2022/07/19 01:12:36;;;;;;;9.55;4.72;;;;;;;;;;3341061;42;20561;-59
2022/07/19 01:15:02;;;;;;;9.45;4.60;;;;;;;;;;3354299;42;20495;-58
2022/07/19 01:17:29;;;;;;;9.23;4.32;;;;;;;;;;3339534;42;20471;-61
2022/07/19 01:19:55;;;;;;;8.70;4.27;;;;;;;;;;3352802;42;20092;-59
2022/07/19 01:22:21;;;;;;;8.88;4.63;;;;;;;;;;3355256;42;20089;-60
2022/07/19 01:24:47;;;;;;;8.45;4.47;;;;;;;;;;3346116;42;20174;-59
2022/07/19 01:27:13;;;;;;;9.98;4.18;;;;;;;;;;3354089;42;20088;-61
2022/07/19 01:29:39;;;;;;;9.03;4.00;;;;;;;;;;3352610;42;20148;-59
2022/07/19 01:32:05;;;;;;;8.80;4.28;;;;;;;;;;3358123;42;20115;-59
2022/07/19 01:34:31;;;;;;;9.15;4.13;;;;;;;;;;3358438;42;20088;-56
2022/07/19 01:36:57;;;;;;;7.28;3.95;;;;;;;;;;3349162;42;20119;-58
2022/07/19 01:39:23;;;;;;;8.97;3.67;;;;;;;;;;3353806;42;20088;-59
2022/07/19 01:41:49;;;;;;;7.78;3.78;;;;;;;;;;3349617;42;20092;-59
2022/07/19 01:44:15;;;;;;;7.43;4.10;;;;;;;;;;3353285;42;20626;-57
2022/07/19 01:46:41;;;;;;;8.90;4.43;;;;;;;;;;3344492;42;20100;-59
2022/07/19 01:49:07;;;;;;;8.93;3.90;;;;;;;;;;3354474;42;20506;-60
2022/07/19 01:51:33;;;;;;;7.88;3.83;;;;;;;;;;3352624;42;20497;-60
2022/07/19 01:53:59;;;;;;;7.90;4.13;;;;;;;;;;3353573;42;20100;-59
2022/07/19 01:56:25;;;;;;;7.55;4.00;;;;;;;;;;3354838;42;20148;-57
2022/07/19 01:58:51;;;;;;;7.97;3.80;;;;;;;;;;3354108;42;20143;-60
2022/07/19 02:01:17;;;;;;;9.25;4.32;;;;;;;;;;3349836;42;20171;-57
2022/07/19 02:03:43;;;;;;;8.20;3.92;;;;;;;;;;3356041;42;20095;-59
2022/07/19 02:06:09;;;;;;;7.70;3.90;;;;;;;;;;3345944;42;20098;-59
2022/07/19 02:08:35;;;;;;;7.85;4.00;;;;;;;;;;3342836;42;20092;-64
2022/07/19 02:11:34;;;;;;;9.70;4.05;;;;;;;;;;3353748;42;20089;-58
2022/07/19 02:13:48;;;;;;;8.23;4.20;;;;;;;;;;3352574;42;20190;-58
2022/07/19 02:16:14;;;;;;;8.93;3.92;;;;;;;;;;3355831;42;20092;-59
2022/07/19 02:18:40;;;;;;;8.17;4.07;;;;;;;;;;3352629;42;20109;-59
2022/07/19 02:21:06;;;;;;;9.77;3.90;;;;;;;;;;3358404;42;20084;-60
2022/07/19 02:23:32;;;;;;;7.40;3.58;;;;;;;;;;3352977;42;20184;-59
2022/07/19 02:25:57;;;;;;;7.70;3.90;;;;;;;;;;3354935;42;20107;-59
2022/07/19 02:28:23;;;;;;;6.80;3.53;;;;;;;;;;3358404;42;20103;-59
2022/07/19 02:30:49;;;;;;;6.93;3.53;;;;;;;;;;3358167;42;20095;-58
2022/07/19 02:33:15;;;;;;;8.02;3.70;;;;;;;;;;3350297;42;20212;-59
2022/07/19 02:35:41;;;;;;;10.03;4.03;;;;;;;;;;3357594;42;20099;-59
2022/07/19 02:38:07;;;;;;;8.07;3.60;;;;;;;;;;3354776;42;20103;-58
2022/07/19 02:40:33;;;;;;;7.72;3.40;;;;;;;;;;3348126;42;20080;-57
2022/07/19 02:42:59;;;;;;;6.65;3.50;;;;;;;;;;3354367;42;20140;-58
2022/07/19 02:45:25;;;;;;;7.10;3.57;;;;;;;;;;3353294;42;20632;-58
2022/07/19 02:47:51;;;;;;;7.32;3.85;;;;;;;;;;3358107;42;20632;-59
2022/07/19 02:50:17;;;;;;;6.57;3.20;;;;;;;;;;3344048;42;20122;-59
2022/07/19 02:52:43;;;;;;;7.45;3.45;;;;;;;;;;3353920;42;20093;-59
2022/07/19 02:55:09;;;;;;;6.30;3.47;;;;;;;;;;3353858;42;20092;-60
2022/07/19 02:57:35;;;;;;;9.73;3.50;;;;;;;;;;3356270;42;20084;-59
2022/07/19 03:00:03;;;;;;;6.00;3.20;;;;;;;;;;3352243;42;20099;-59
2022/07/19 03:02:29;;;;;;;7.60;3.33;;;;;;;;;;3354635;42;20256;-59
2022/07/19 03:04:55;;;;;;;8.10;3.10;;;;;;;;;;3354290;42;20110;-59
2022/07/19 03:07:21;;;;;;;8.18;3.08;;;;;;;;;;3357681;42;20127;-58
2022/07/19 03:09:47;;;;;;;6.43;2.90;;;;;;;;;;3351597;42;20151;-59
2022/07/19 03:12:13;;;;;;;6.50;3.10;;;;;;;;;;3353163;42;20104;-59
2022/07/19 03:14:39;;;;;;;8.10;2.97;;;;;;;;;;3351111;42;20104;-58
2022/07/19 03:17:05;;;;;;;8.82;2.90;;;;;;;;;;3357180;42;20092;-59
2022/07/19 03:19:31;;;;;;;5.78;3.00;;;;;;;;;;3352613;42;20606;-59
2022/07/19 03:21:57;;;;;;;7.10;2.80;;;;;;;;;;3355108;42;20657;-58
2022/07/19 03:24:23;;;;;;;5.55;2.65;;;;;;;;;;3350694;42;20164;-59
2022/07/19 03:26:49;;;;;;;7.57;2.92;;;;;;;;;;3354053;42;20084;-58
2022/07/19 03:29:15;;;;;;;5.20;2.70;;;;;;;;;;3356612;42;20080;-58
2022/07/19 03:31:41;;;;;;;6.33;2.80;;;;;;;;;;3357938;42;20086;-60
2022/07/19 03:34:07;;;;;;;5.63;2.70;;;;;;;;;;3358642;42;20320;-62
2022/07/19 03:36:33;;;;;;;7.53;2.47;;;;;;;;;;3358894;42;20092;-59
2022/07/19 03:38:59;;;;;;;7.05;2.50;;;;;;;;;;3350263;42;20112;-59
2022/07/19 03:41:25;;;;;;;6.65;2.70;;;;;;;;;;3357880;42;20162;-58
2022/07/19 03:43:51;;;;;;;6.70;2.40;;;;;;;;;;3351429;42;20092;-58
2022/07/19 03:46:19;;;;;;;5.60;2.50;;;;;;;;;;3349629;42;20269;-58
2022/07/19 03:48:45;;;;;;;6.78;2.30;;;;;;;;;;3354531;42;20088;-58
2022/07/19 03:51:11;;;;;;;5.68;2.15;;;;;;;;;;3355373;42;20605;-58
2022/07/19 03:53:37;;;;;;;6.13;2.13;;;;;;;;;;3349879;42;20099;-59
2022/07/19 03:56:03;;;;;;;6.97;2.77;;;;;;;;;;3345578;42;20569;-57
2022/07/19 03:58:29;;;;;;;6.00;2.28;;;;;;;;;;3350350;42;20080;-59
2022/07/19 04:00:55;;;;;;;6.13;2.30;;;;;;;;;;3352575;42;20103;-58
2022/07/19 04:03:21;;;;;;;7.88;2.40;;;;;;;;;;3349324;42;20562;-56
2022/07/19 04:05:47;;;;;;;5.07;2.30;;;;;;;;;;3344950;42;20084;-58
2022/07/19 04:08:14;;;;;;;5.35;2.10;;;;;;;;;;3357498;42;20135;-58
2022/07/19 04:10:41;;;;;;;9.27;2.38;;;;;;;;;;3351743;42;20099;-60
2022/07/19 04:13:07;;;;;;;5.25;2.25;;;;;;;;;;3356814;42;20575;-58
2022/07/19 04:15:33;;;;;;;5.10;2.10;;;;;;;;;;3352743;42;20113;-58
2022/07/19 04:17:59;;;;;;;7.70;2.20;;;;;;;;;;3351162;42;20107;-58
2022/07/19 04:20:25;;;;;;;5.75;2.30;;;;;;;;;;3353835;42;20085;-57
2022/07/19 04:22:51;;;;;;;6.90;2.33;;;;;;;;;;3356706;42;20084;-58
2022/07/19 04:25:17;;;;;;;4.97;2.30;;;;;;;;;;3347140;42;20594;-58
2022/07/19 04:27:43;;;;;;;6.00;2.20;;;;;;;;;;3351544;42;20139;-59
2022/07/19 04:30:09;;;;;;;6.13;2.08;;;;;;;;;;3351576;42;20095;-58
2022/07/19 04:32:35;;;;;;;5.88;2.25;;;;;;;;;;3345742;42;20081;-57
2022/07/19 04:35:02;;;;;;;6.65;2.30;;;;;;;;;;3353217;42;20087;-59
2022/07/19 04:37:28;;;;;;;5.47;1.90;;;;;;;;;;3349162;42;20096;-58
2022/07/19 04:39:54;;;;;;;6.75;2.00;;;;;;;;;;3352101;42;20089;-57
2022/07/19 04:42:20;;;;;;;8.88;2.70;;;;;;;;;;3352937;42;20128;-57
2022/07/19 04:44:46;;;;;;;5.15;2.20;;;;;;;;;;3352365;42;20624;-58
2022/07/19 04:47:12;;;;;;;5.13;2.00;;;;;;;;;;3351698;42;20089;-58
2022/07/19 04:49:38;;;;;;;6.80;2.30;;;;;;;;;;3357386;42;20108;-58
2022/07/19 04:52:05;;;;;;;5.40;1.85;;;;;;;;;;3354944;42;20093;-58
2022/07/19 04:54:31;;;;;;;7.15;2.08;;;;;;;;;;3345351;42;20200;-58
2022/07/19 04:56:57;;;;;;;6.57;2.00;;;;;;;;;;3328868;42;20140;-58
2022/07/19 04:59:23;;;;;;;5.17;1.80;;;;;;;;;;3352974;42;20095;-58
2022/07/19 05:01:50;;;;;;;4.80;1.80;;;;;;;;;;3357715;42;20696;-60
2022/07/19 05:04:16;;;;;;;6.18;2.40;;;;;;;;;;3353123;42;20090;-57
2022/07/19 05:06:44;;;;;;;5.70;1.90;;;;;;;;;;3352455;42;20088;-57
2022/07/19 05:09:11;;;;;;;5.25;2.08;;;;;;;;;;3352598;42;20088;-61
2022/07/19 05:11:36;;;;;;;4.80;1.90;;;;;;;;;;3345678;42;20131;-58
2022/07/19 05:14:02;;;;;;;5.50;2.10;;;;;;;;;;3350803;42;20570;-58
2022/07/19 05:16:28;;;;;;;5.88;2.00;;;;;;;;;;3352149;42;20593;-57
2022/07/19 05:18:54;;;;;;;6.97;2.20;;;;;;;;;;3355971;42;20088;-57
2022/07/19 05:21:20;;;;;;;4.80;1.90;;;;;;;;;;3352785;42;20547;-59
2022/07/19 05:23:46;;;;;;;5.68;1.90;;;;;;;;;;3352339;42;20544;-57
2022/07/19 05:26:12;;;;;;;6.25;2.00;;;;;;;;;;3353120;42;20136;-57
2022/07/19 05:28:38;;;;;;;5.03;1.80;;;;;;;;;;3361312;42;20087;-57
2022/07/19 05:31:04;;;;;;;4.50;1.67;;;;;;;;;;3358594;42;20076;-57
2022/07/19 05:33:30;;;;;;;4.85;1.80;;;;;;;;;;3359848;42;20104;-55
2022/07/19 05:35:56;;;;;;;6.15;1.80;;;;;;;;;;3346288;42;20093;-58
2022/07/19 05:38:22;;;;;;;5.83;1.70;;;;;;;;;;3358364;42;20084;-58
2022/07/19 05:40:48;;;;;;;7.25;1.70;;;;;;;;;;3357908;42;20184;-58
2022/07/19 05:43:15;;;;;;;4.40;1.60;;;;;;;;;;3351960;42;20188;-57
2022/07/19 05:45:41;;;;;;;6.10;1.70;;;;;;;;;;3354665;42;20157;-56
2022/07/19 05:48:07;;;;;;;6.15;1.70;;;;;;;;;;3360182;42;20597;-57
2022/07/19 05:50:33;;;;;;;6.40;1.70;;;;;;;;;;3356077;42;20155;-58
2022/07/19 05:52:59;;;;;;;5.00;1.80;;;;;;;;;;3354226;42;20192;-58
2022/07/19 05:55:25;;;;;;;5.13;1.58;;;;;;;;;;3358988;42;20084;-59
2022/07/19 05:57:51;;;;;;;4.15;1.45;;;;;;;;;;3360712;42;20091;-58
2022/07/19 06:00:17;;;;;;;4.60;1.67;;;;;;;;;;3344619;42;20107;-58
2022/07/19 06:02:43;;;;;;;5.25;1.48;;;;;;;;;;3352598;42;20135;-59
2022/07/19 06:05:09;;;;;;;4.20;1.30;;;;;;;;;;3352499;42;20595;-58
2022/07/19 06:07:35;;;;;;;4.53;1.50;;;;;;;;;;3352890;42;20093;-57
2022/07/19 06:10:01;;;;;;;5.30;1.50;;;;;;;;;;3353746;42;20103;-58
2022/07/19 06:12:28;;;;;;;5.57;1.50;;;;;;;;;;3352194;42;20092;-58
2022/07/19 06:14:53;;;;;;;6.32;1.63;;;;;;;;;;3352568;42;20103;-58
2022/07/19 06:17:19;;;;;;;6.00;1.50;;;;;;;;;;3354415;42;20088;-56
2022/07/19 06:19:45;;;;;;;6.73;1.47;;;;;;;;;;3356737;42;20115;-57
2022/07/19 06:22:11;;;;;;;4.45;1.40;;;;;;;;;;3353885;42;20140;-58
2022/07/19 06:24:37;;;;;;;4.40;1.35;;;;;;;;;;3357757;42;20088;-59
2022/07/19 06:27:03;;;;;;;5.47;1.50;;;;;;;;;;3356959;42;20089;-59
2022/07/19 06:29:29;;;;;;;4.90;1.20;;;;;;;;;;3352692;42;20653;-57
2022/07/19 06:31:55;;;;;;;5.47;1.40;;;;;;;;;;3353203;42;20139;-58
2022/07/19 06:34:21;;;;;;;6.30;1.80;;;;;;;;;;3358814;42;20131;-59
2022/07/19 06:36:47;;;;;;;4.30;1.40;;;;;;;;;;3362292;42;20084;-58
2022/07/19 06:39:13;;;;;;;5.37;1.40;;;;;;;;;;3361703;42;20147;-58
2022/07/19 06:41:39;;;;;;;4.97;1.25;;;;;;;;;;3360104;42;20131;-57
2022/07/19 06:44:05;;;;;;;6.00;1.20;;;;;;;;;;3361065;42;20102;-58
2022/07/19 06:46:31;;;;;;;5.90;1.40;;;;;;;;;;3360785;42;20084;-58
2022/07/19 06:48:57;;;;;;;5.20;1.40;;;;;;;;;;3362682;42;20544;-60
2022/07/19 06:51:23;;;;;;;5.80;1.40;;;;;;;;;;3362441;42;20091;-56
2022/07/19 06:53:49;;;;;;;5.38;1.20;;;;;;;;;;3361536;42;20100;-59
2022/07/19 06:56:15;;;;;;;3.97;1.20;;;;;;;;;;3361414;42;20166;-58
2022/07/19 06:58:40;;;;;;;5.07;1.40;;;;;;;;;;3361651;42;20170;-58
2022/07/19 07:01:07;;;;;;;5.50;1.30;;;;;;;;;;3358735;42;20195;-58
2022/07/19 07:03:33;;;;;;;4.47;1.30;;;;;;;;;;3357624;42;20107;-58
2022/07/19 07:05:59;;;;;;;5.03;1.40;;;;;;;;;;3349331;42;20096;-59
2022/07/19 07:08:26;;;;;;;5.80;1.40;;;;;;;;;;3354819;42;20162;-58
2022/07/19 07:10:52;;;;;;;7.80;1.30;;;;;;;;;;3351360;42;20147;-56
2022/07/19 07:13:18;;;;;;;4.45;1.23;;;;;;;;;;3353269;42;20182;-59
2022/07/19 07:15:43;;;;;;;4.57;1.30;;;;;;;;;;3357523;42;20159;-59
2022/07/19 07:18:09;;;;;;;5.27;1.30;;;;;;;;;;3352978;42;20096;-58
2022/07/19 07:20:35;;;;;;;9.55;1.50;;;;;;;;;;3343526;42;20089;-57
2022/07/19 07:23:02;;;;;;;5.70;1.20;;;;;;;;;;3352107;42;20088;-56
2022/07/19 07:25:28;;;;;;;6.30;1.40;;;;;;;;;;3343625;42;20089;-59
2022/07/19 07:27:54;;;;;;;5.37;1.30;;;;;;;;;;3352145;42;20118;-60
2022/07/19 07:30:20;;;;;;;4.45;1.27;;;;;;;;;;3353263;42;20297;-60
2022/07/19 07:32:46;;;;;;;4.70;1.60;;;;;;;;;;3352117;42;20123;-57
2022/07/19 07:35:12;;;;;;;5.40;1.30;;;;;;;;;;3351963;42;20566;-58
2022/07/19 07:37:38;;;;;;;6.43;1.40;;;;;;;;;;3355117;42;20509;-59
2022/07/19 07:40:05;;;;;;;6.33;1.60;;;;;;;;;;3353931;42;20399;-57
2022/07/19 07:42:31;;;;;;;4.03;1.38;;;;;;;;;;3352196;42;20096;-58
2022/07/19 07:44:58;;;;;;;6.25;1.48;;;;;;;;;;3351552;42;20096;-59
2022/07/19 07:47:24;;;;;;;4.43;1.38;;;;;;;;;;3353934;42;20085;-63
2022/07/19 07:49:50;;;;;;;5.93;1.23;;;;;;;;;;3352383;42;20155;-59
2022/07/19 07:52:16;;;;;;;5.15;1.70;;;;;;;;;;3352387;42;20088;-57
2022/07/19 07:54:42;;;;;;;5.22;1.38;;;;;;;;;;3347241;42;20529;-58
2022/07/19 07:57:09;;;;;;;4.03;1.30;;;;;;;;;;3350786;42;20143;-58
2022/07/19 07:59:35;;;;;;;5.73;1.50;;;;;;;;;;3350562;42;20555;-58
2022/07/19 08:02:01;;;;;;;4.18;1.40;;;;;;;;;;3352134;42;20563;-59
2022/07/19 08:04:27;;;;;;;4.93;1.40;;;;;;;;;;3353894;42;20080;-58
2022/07/19 08:06:53;;;;;;;5.88;1.60;;;;;;;;;;3353656;42;20538;-60
2022/07/19 08:09:19;;;;;;;4.88;1.35;;;;;;;;;;3350929;42;20547;-58
2022/07/19 08:11:45;;;;;;;4.60;1.50;;;;;;;;;;3357140;42;20111;-58
2022/07/19 08:14:11;;;;;;;5.13;1.52;;;;;;;;;;3349194;42;20084;-59
2022/07/19 08:16:37;;;;;;;4.50;1.50;;;;;;;;;;3353672;42;20554;-60
2022/07/19 08:19:03;;;;;;;6.43;1.63;;;;;;;;;;3351062;42;20590;-59
2022/07/19 08:21:29;;;;;;;5.05;1.42;;;;;;;;;;3352730;42;20156;-59
2022/07/19 08:23:56;;;;;;;6.85;1.80;;;;;;;;;;3353402;42;20155;-57
2022/07/19 08:26:22;;;;;;;5.45;1.52;;;;;;;;;;3354208;42;20092;-57
2022/07/19 08:28:48;;;;;;;5.63;1.50;;;;;;;;;;3356417;42;20191;-58
2022/07/19 08:31:15;;;;;;;4.97;1.60;;;;;;;;;;3352529;42;20135;-58
2022/07/19 08:33:41;;;;;;;6.07;1.60;;;;;;;;;;3352072;42;20088;-58
2022/07/19 08:36:09;;;;;;;5.50;1.48;;;;;;;;;;3350315;42;20602;-58
2022/07/19 08:38:37;;;;;;;5.10;1.60;;;;;;;;;;3354718;42;20136;-58
2022/07/19 08:41:03;;;;;;;5.22;1.60;;;;;;;;;;3354976;42;20104;-57
2022/07/19 08:43:29;;;;;;;5.23;1.60;;;;;;;;;;3353099;42;20227;-58
2022/07/19 08:46:00;;;;;;;5.00;1.80;;;;;;;;;;3348502;42;20135;-58
2022/07/19 08:48:30;;;;;;;4.60;1.50;;;;;;;;;;3342753;42;20636;-58
2022/07/19 08:50:56;;;;;;;5.32;1.90;;;;;;;;;;3351140;42;20092;-59
2022/07/19 08:53:22;;;;;;;5.32;1.50;;;;;;;;;;3347486;42;20096;-59
2022/07/19 08:55:49;;;;;;;4.40;1.57;;;;;;;;;;3347518;42;20513;-58
2022/07/19 08:58:15;;;;;;;4.45;1.50;;;;;;;;;;3345900;42;20102;-58
2022/07/19 09:00:41;;;;;;;4.00;1.30;;;;;;;;;;3352353;42;20576;-58
2022/07/19 09:03:07;;;;;;;3.92;1.20;;;;;;;;;;3343746;42;20089;-58
2022/07/19 09:05:34;;;;;;;5.57;1.50;;;;;;;;;;3355218;42;20085;-64
2022/07/19 09:08:14;;;;;;;8.13;1.40;;;;;;;;;;3345756;42;20151;-57
2022/07/19 09:10:42;;;;;;;6.57;1.60;;;;;;;;;;3352375;42;20108;-58
2022/07/19 09:13:13;;;;;;;5.47;1.40;;;;;;;;;;3349135;42;20527;-59
2022/07/19 09:15:45;;;;;;;3.97;1.27;;;;;;;;;;3343073;42;20092;-60
2022/07/19 09:18:14;;;;;;;4.60;1.20;;;;;;;;;;3354152;42;20092;-59
2022/07/19 09:20:40;;;;;;;6.20;1.38;;;;;;;;;;3346659;42;20108;-58
2022/07/19 09:23:06;;;;;;;4.55;1.30;;;;;;;;;;3344625;42;20111;-59
2022/07/19 09:25:37;;;;;;;3.90;1.20;;;;;;;;;;3335585;42;20171;-58
2022/07/19 09:28:03;;;;;;;4.57;1.23;;;;;;;;;;3344733;42;20089;-60
2022/07/19 09:30:40;;;;;;;4.27;1.07;;;;;;;;;;3356253;42;20156;-59
2022/07/19 09:33:11;;;;;;;5.07;1.25;;;;;;;;;;3349293;42;20109;-60
2022/07/19 09:35:45;;;;;;;4.15;1.45;;;;;;;;;;3349881;42;20551;-59
2022/07/19 09:38:20;;;;;;;4.35;1.40;;;;;;;;;;3346162;42;20450;-59
2022/07/19 09:40:50;;;;;;;4.50;1.25;;;;;;;;;;3354663;42;20159;-58
2022/07/19 09:43:16;;;;;;;4.77;1.30;;;;;;;;;;3351178;42;20100;-58
2022/07/19 09:45:44;;;;;;;3.80;1.10;;;;;;;;;;3344379;42;20155;-58
2022/07/19 09:48:10;;;;;;;5.60;1.20;;;;;;;;;;3355131;42;20084;-57
2022/07/19 09:50:36;;;;;;;3.67;1.00;;;;;;;;;;3354617;42;20147;-59
2022/07/19 09:53:04;;;;;;;4.93;1.10;;;;;;;;;;3349254;42;20105;-57
2022/07/19 09:55:30;;;;;;;3.80;1.10;;;;;;;;;;3343867;42;20084;-63
2022/07/19 09:57:56;;;;;;;8.20;1.30;;;;;;;;;;3351426;42;20501;-56
2022/07/19 10:00:24;;;;;;;4.80;1.40;;;;;;;;;;3349356;42;20107;-59
2022/07/19 10:02:54;;;;;;;4.38;1.17;;;;;;;;;;3355593;42;20092;-58
2022/07/19 10:05:20;;;;;;;4.50;1.48;;;;;;;;;;3349264;42;20122;-55
2022/07/19 10:07:46;;;;;;;5.23;1.10;;;;;;;;;;3355593;42;20096;-56
2022/07/19 10:10:14;;;;;;;6.20;1.10;;;;;;;;;;3354780;42;20115;-57
2022/07/19 10:12:41;;;;;;;4.65;1.40;;;;;;;;;;3355800;42;20566;-56
2022/07/19 10:15:08;;;;;;;4.43;1.10;;;;;;;;;;3344702;42;20162;-58
2022/07/19 10:17:53;;;;;;;3.63;1.20;;;;;;;;;;3351617;42;20141;-57
2022/07/19 10:20:21;;;;;;;4.50;1.10;;;;;;;;;;3356521;42;20517;-58
2022/07/19 10:22:47;;;;;;;3.85;1.20;;;;;;;;;;3340612;42;20101;-57
2022/07/19 10:25:14;;;;;;;3.70;1.10;;;;;;;;;;3351652;42;20122;-58
2022/07/19 10:27:44;;;;;;;4.72;1.20;;;;;;;;;;3358056;42;20103;-57
2022/07/19 10:30:10;;;;;;;6.30;1.30;;;;;;;;;;3349964;42;20093;-57
2022/07/19 10:32:37;;;;;;;3.63;1.10;;;;;;;;;;3351539;42;20093;-57
2022/07/19 10:35:22;;;;;;;4.72;1.20;;;;;;;;;;3357708;42;20103;-60
2022/07/19 10:37:50;;;;;;;5.72;1.10;;;;;;;;;;3348851;42;20159;-57
2022/07/19 10:40:38;;;;;;;3.80;1.17;;;;;;;;;;3345845;42;20107;-56
2022/07/19 10:43:13;;;;;;;4.40;1.30;;;;;;;;;;3353099;42;20196;-58
2022/07/19 10:45:41;;;;;;;4.28;1.27;;;;;;;;;;3352172;42;20091;-58
2022/07/19 10:48:14;;;;;;;4.40;1.35;;;;;;;;;;3343481;42;20475;-58
2022/07/19 10:50:55;;;;;;;4.55;1.20;;;;;;;;;;3355877;42;20115;-54
2022/07/19 10:53:39;;;;;;;5.53;1.48;;;;;;;;;;3354071;42;20158;-58
2022/07/19 10:56:24;;;;;;;4.30;1.33;;;;;;;;;;3351397;42;20115;-56
2022/07/19 10:59:01;;;;;;;4.20;1.20;;;;;;;;;;3351166;42;20084;-58
2022/07/19 11:01:28;;;;;;;5.38;2.22;;;;;;;;;;3351213;42;20104;-59
2022/07/19 11:03:55;;;;;;;5.10;1.40;;;;;;;;;;3351879;42;20167;-59
2022/07/19 11:06:25;;;;;;;4.10;1.30;;;;;;;;;;3343527;42;20102;-60
2022/07/19 11:08:56;;;;;;;6.17;1.33;;;;;;;;;;3342257;42;20140;-57
2022/07/19 11:11:22;;;;;;;5.97;1.30;;;;;;;;;;3352020;42;20089;-57
2022/07/19 11:13:49;;;;;;;4.82;1.40;;;;;;;;;;3349067;42;20104;-57
2022/07/19 11:16:16;;;;;;;4.22;1.27;;;;;;;;;;3353406;42;20096;-58
2022/07/19 11:18:43;;;;;;;4.90;1.15;;;;;;;;;;3348821;42;20103;-60
2022/07/19 11:21:10;;;;;;;3.90;1.20;;;;;;;;;;3357472;42;20566;-57
2022/07/19 11:23:36;;;;;;;4.55;1.40;;;;;;;;;;3356450;42;20095;-57
2022/07/19 11:26:09;;;;;;;6.95;1.30;;;;;;;;;;3343535;42;20148;-58
2022/07/19 11:28:36;;;;;;;4.95;1.10;;;;;;;;;;3351835;42;20092;-58
2022/07/19 11:31:18;;;;;;;6.18;1.23;;;;;;;;;;3351156;42;20515;-58
2022/07/19 11:33:45;;;;;;;4.87;1.20;;;;;;;;;;3348925;42;20107;-59
2022/07/19 11:36:11;;;;;;;3.95;1.17;;;;;;;;;;3345495;42;20160;-57
2022/07/19 11:38:39;;;;;;;5.88;1.40;;;;;;;;;;3340016;42;20092;-59
2022/07/19 11:41:19;;;;;;;4.28;1.25;;;;;;;;;;3337457;42;20498;-57
2022/07/19 11:44:01;;;;;;;5.07;1.40;;;;;;;;;;3353304;42;20107;-58
2022/07/19 11:46:29;;;;;;;5.40;1.40;;;;;;;;;;3351565;42;20093;-58
2022/07/19 11:49:00;;;;;;;4.35;1.20;;;;;;;;;;3344449;42;20146;-58
2022/07/19 11:51:26;;;;;;;4.28;1.48;;;;;;;;;;3345518;42;20080;-57
2022/07/19 11:53:54;;;;;;;5.15;1.60;;;;;;;;;;3352912;42;20104;-57
2022/07/19 11:56:21;;;;;;;4.57;1.27;;;;;;;;;;3354223;42;20586;-58
2022/07/19 11:58:48;;;;;;;5.47;1.40;;;;;;;;;;3343459;42;20147;-58
2022/07/19 12:01:14;;;;;;;8.23;1.30;;;;;;;;;;3342891;42;20101;-63
2022/07/19 12:03:40;;;;;;;4.22;1.38;;;;;;;;;;3352948;42;20081;-58
2022/07/19 12:06:07;;;;;;;3.97;1.20;;;;;;;;;;3352640;42;20566;-56
2022/07/19 12:08:33;;;;;;;5.85;1.30;;;;;;;;;;3353049;42;20136;-58
2022/07/19 12:10:59;;;;;;;4.77;1.50;;;;;;;;;;3352173;42;20163;-58
2022/07/19 12:13:30;;;;;;;5.00;1.30;;;;;;;;;;3344048;42;20271;-58
2022/07/19 12:16:00;;;;;;;6.80;1.58;;;;;;;;;;3345961;42;20089;-58
2022/07/19 12:18:44;;;;;;;5.80;1.50;;;;;;;;;;3354244;42;20108;-58
2022/07/19 12:21:31;;;;;;;4.82;1.50;;;;;;;;;;3354903;42;20100;-58
2022/07/19 12:24:19;;;;;;;4.63;1.20;;;;;;;;;;3353816;42;20092;-59
2022/07/19 12:26:53;;;;;;;5.35;1.48;;;;;;;;;;3349328;42;20170;-59
2022/07/19 12:29:33;;;;;;;6.63;1.58;;;;;;;;;;3356336;42;20096;-58
2022/07/19 12:32:13;;;;;;;4.25;1.50;;;;;;;;;;3355041;42;20088;-56
2022/07/19 12:34:59;;;;;;;4.72;1.55;;;;;;;;;;3355843;42;20567;-59
2022/07/19 12:37:29;;;;;;;4.60;1.80;;;;;;;;;;3346060;42;20093;-59
2022/07/19 12:40:04;;;;;;;5.30;1.58;;;;;;;;;;3348275;42;20518;-53
2022/07/19 12:42:39;;;;;;;6.88;1.40;;;;;;;;;;3346383;42;20139;-58
2022/07/19 12:45:06;;;;;;;4.95;1.50;;;;;;;;;;3351304;42;20108;-58
2022/07/19 12:47:32;;;;;;;5.68;1.35;;;;;;;;;;3344694;42;20084;-58
2022/07/19 12:49:58;;;;;;;5.80;1.63;;;;;;;;;;3355793;42;20104;-58
2022/07/19 12:52:24;;;;;;;5.80;1.88;;;;;;;;;;3354378;42;20093;-59
2022/07/19 12:54:50;;;;;;;4.80;1.45;;;;;;;;;;3354166;42;20586;-59
2022/07/19 12:57:16;;;;;;;5.30;1.50;;;;;;;;;;3353567;42;20598;-58
2022/07/19 12:59:42;;;;;;;5.43;1.30;;;;;;;;;;3352905;42;20088;-57
2022/07/19 13:02:10;;;;;;;4.50;1.50;;;;;;;;;;3354541;42;20103;-58
2022/07/19 13:04:36;;;;;;;4.40;1.50;;;;;;;;;;3358448;42;20147;-63
2022/07/19 13:07:02;;;;;;;7.60;1.70;;;;;;;;;;3350018;42;20100;-58
2022/07/19 13:09:28;;;;;;;5.38;1.50;;;;;;;;;;3352769;42;20096;-59
2022/07/19 13:11:54;;;;;;;6.20;1.57;;;;;;;;;;3353468;42;20206;-58
2022/07/19 13:14:20;;;;;;;4.75;1.30;;;;;;;;;;3346307;42;20190;-58
2022/07/19 13:16:46;;;;;;;5.63;1.90;;;;;;;;;;3346162;42;20104;-59
2022/07/19 13:19:12;;;;;;;6.35;1.67;;;;;;;;;;3354952;42;20175;-59
2022/07/19 13:21:38;;;;;;;6.43;1.70;;;;;;;;;;3351293;42;20097;-59
2022/07/19 13:24:05;;;;;;;5.68;1.65;;;;;;;;;;3355311;42;20100;-58
2022/07/19 13:26:31;;;;;;;5.13;1.80;;;;;;;;;;3352979;42;20692;-59
2022/07/19 13:28:57;;;;;;;4.43;1.38;;;;;;;;;;3355959;42;20092;-56
2022/07/19 13:31:23;;;;;;;4.88;1.50;;;;;;;;;;3354750;42;20190;-57
2022/07/19 13:33:49;;;;;;;6.30;1.70;;;;;;;;;;3344154;42;20081;-60
2022/07/19 13:36:15;;;;;;;5.20;1.63;;;;;;;;;;3353518;42;20104;-58
2022/07/19 13:38:41;;;;;;;5.72;1.70;;;;;;;;;;3354861;42;20243;-59
2022/07/19 13:41:07;;;;;;;4.80;1.65;;;;;;;;;;3356652;42;20140;-59
2022/07/19 13:43:34;;;;;;;4.75;1.70;;;;;;;;;;3351980;42;20149;-57
2022/07/19 13:45:59;;;;;;;6.10;1.60;;;;;;;;;;3351075;42;20141;-59
2022/07/19 13:48:26;;;;;;;7.22;1.70;;;;;;;;;;3354446;42;20084;-59
2022/07/19 13:50:52;;;;;;;4.70;1.70;;;;;;;;;;3353787;42;20096;-56
2022/07/19 13:53:18;;;;;;;6.70;1.80;;;;;;;;;;3358045;42;20110;-58
2022/07/19 13:55:44;;;;;;;5.68;1.70;;;;;;;;;;3358132;42;20140;-56
2022/07/19 13:58:10;;;;;;;4.27;1.60;;;;;;;;;;3351514;42;20081;-58
2022/07/19 14:00:36;;;;;;;5.72;1.70;;;;;;;;;;3354855;42;20111;-59
2022/07/19 14:03:02;;;;;;;6.85;1.70;;;;;;;;;;3345651;42;20564;-59
2022/07/19 14:05:28;;;;;;;5.40;1.70;;;;;;;;;;3351814;42;20103;-59
2022/07/19 14:07:54;;;;;;;4.50;1.50;;;;;;;;;;3356012;42;20092;-62
2022/07/19 14:10:20;;;;;;;7.32;1.80;;;;;;;;;;3349151;42;20099;-60
2022/07/19 14:12:46;;;;;;;6.22;1.80;;;;;;;;;;3354765;42;20130;-63
2022/07/19 14:15:12;;;;;;;4.80;1.60;;;;;;;;;;3357010;42;20091;-63
2022/07/19 14:17:38;;;;;;;5.27;1.80;;;;;;;;;;3362170;42;20135;-61
2022/07/19 14:20:05;;;;;;;5.13;1.65;;;;;;;;;;3355891;42;20096;-59
2022/07/19 14:22:31;;;;;;;5.75;1.70;;;;;;;;;;3353917;42;20505;-59
2022/07/19 14:24:59;;;;;;;7.82;1.80;;;;;;;;;;3357970;42;20088;-62
2022/07/19 14:27:25;;;;;;;5.90;1.80;;;;;;;;;;3362603;42;20087;-60
2022/07/19 14:29:51;;;;;;;6.73;2.63;;;;;;;;;;3363199;42;20135;-60
2022/07/19 14:32:17;;;;;;;6.53;2.00;;;;;;;;;;3360025;42;20112;-61
2022/07/19 14:34:43;;;;;;;6.30;1.98;;;;;;;;;;3352152;42;20175;-60
2022/07/19 14:37:09;;;;;;;5.47;1.83;;;;;;;;;;3349559;42;20088;-60
2022/07/19 14:39:35;;;;;;;5.82;1.80;;;;;;;;;;3351649;42;20628;-61
2022/07/19 14:42:05;;;;;;;6.93;1.80;;;;;;;;;;3348811;42;20088;-61
2022/07/19 14:44:31;;;;;;;7.63;1.88;;;;;;;;;;3350559;42;20104;-58